Time;durP1;ratioP1;P1;durP2;ratioP2;P2;SDS_P1;SDS_P2;PMS_P1;PMS_P2;Temp;Humidity;BMP_temperature;BMP_pressure;BME280_temperature;BME280_humidity;BME280_pressure;Samples;Min_cycle;Max_cycle;Signal;HPM_P1;HPM_P2
2022/12/16 00:01:28;;;;;;;33.40;14.30;;;;;;;1.05;100.00;100528.31;1794274;80;21149;-52
2022/12/16 00:03:57;;;;;;;33.25;15.48;;;;;;;1.03;100.00;100528.44;1794192;80;21082;-51
2022/12/16 00:06:30;;;;;;;29.72;14.25;;;;;;;1.01;100.00;100522.82;1794016;80;21150;-50
2022/12/16 00:09:00;;;;;;;32.35;14.98;;;;;;;1.02;100.00;100526.73;1793845;80;21565;-50
2022/12/16 00:11:30;;;;;;;31.57;15.72;;;;;;;1.03;100.00;100532.98;1794025;80;21205;-49
2022/12/16 00:14:00;;;;;;;35.30;16.10;;;;;;;1.02;100.00;100535.32;1791503;80;21566;-50
2022/12/16 00:16:30;;;;;;;30.17;14.80;;;;;;;0.99;100.00;100539.63;1788161;80;21142;-50
2022/12/16 00:19:00;;;;;;;33.38;15.43;;;;;;;0.98;100.00;100546.02;1788090;80;21600;-50
2022/12/16 00:21:29;;;;;;;34.53;16.30;;;;;;;0.96;100.00;100542.11;1787993;80;21270;-50
2022/12/16 00:23:58;;;;;;;39.18;17.00;;;;;;;0.95;100.00;100545.79;1788228;80;21174;-50
2022/12/16 00:26:30;;;;;;;35.98;16.05;;;;;;;0.95;100.00;100539.90;1787933;80;21095;-51
2022/12/16 00:28:59;;;;;;;36.08;15.78;;;;;;;0.98;100.00;100528.48;1788172;80;21198;-50
2022/12/16 00:31:28;;;;;;;31.25;15.15;;;;;;;1.00;100.00;100542.20;1788008;80;21158;-50
2022/12/16 00:33:58;;;;;;;32.53;16.40;;;;;;;1.02;100.00;100536.17;1788416;80;21557;-51
2022/12/16 00:36:27;;;;;;;31.37;15.70;;;;;;;1.05;100.00;100533.21;1788112;80;21569;-50
2022/12/16 00:38:56;;;;;;;37.58;15.55;;;;;;;1.07;100.00;100544.73;1787967;80;21146;-50
2022/12/16 00:41:26;;;;;;;33.75;15.93;;;;;;;1.08;100.00;100536.98;1787966;80;21572;-49
2022/12/16 00:43:55;;;;;;;34.53;15.45;;;;;;;1.07;100.00;100528.53;1787952;80;21098;-51
2022/12/16 00:46:24;;;;;;;35.92;16.80;;;;;;;1.02;100.00;100544.27;1788014;80;21099;-50
2022/12/16 00:48:54;;;;;;;40.55;18.12;;;;;;;0.95;100.00;100543.95;1788020;80;21174;-50
2022/12/16 00:51:25;;;;;;;40.05;18.32;;;;;;;0.94;100.00;100544.08;1788185;80;21573;-50
2022/12/16 00:53:54;;;;;;;39.92;19.07;;;;;;;0.97;100.00;100548.36;1787993;80;21158;-50
2022/12/16 00:56:24;;;;;;;42.62;19.70;;;;;;;0.98;100.00;100544.67;1787913;80;21122;-52
2022/12/16 00:58:53;;;;;;;37.28;17.77;;;;;;;0.99;100.00;100538.28;1788134;80;21145;-51
2022/12/16 01:01:23;;;;;;;35.13;16.15;;;;;;;0.98;100.00;100532.53;1788026;80;21145;-51
2022/12/16 01:03:57;;;;;;;39.08;17.67;;;;;;;0.97;100.00;100522.73;1788006;80;21127;-51
2022/12/16 01:06:27;;;;;;;35.65;17.37;;;;;;;0.99;100.00;100525.66;1788242;80;21134;-50
2022/12/16 01:08:58;;;;;;;41.05;18.75;;;;;;;1.01;100.00;100523.67;1788188;80;21114;-50
2022/12/16 01:11:27;;;;;;;46.58;20.30;;;;;;;1.01;100.00;100526.38;1788166;80;21169;-50
2022/12/16 01:13:56;;;;;;;47.98;20.20;;;;;;;1.03;100.00;100531.64;1787984;80;21181;-49
2022/12/16 01:16:26;;;;;;;43.20;20.37;;;;;;;1.01;100.00;100539.86;1787907;80;21150;-50
2022/12/16 01:18:57;;;;;;;41.98;19.45;;;;;;;1.04;100.00;100547.69;1788147;80;21178;-51
2022/12/16 01:21:26;;;;;;;38.02;18.40;;;;;;;1.06;100.00;100553.81;1787916;80;21173;-51
2022/12/16 01:23:55;;;;;;;39.08;20.00;;;;;;;1.04;100.00;100561.18;1787949;80;21353;-50
2022/12/16 01:26:27;;;;;;;42.38;19.70;;;;;;;1.00;100.00;100549.44;1787856;80;21106;-51
2022/12/16 01:28:56;;;;;;;38.42;18.48;;;;;;;0.99;100.00;100559.87;1788018;80;21185;-50
2022/12/16 01:31:26;;;;;;;38.67;17.87;;;;;;;1.02;100.00;100562.30;1788121;80;21427;-49
2022/12/16 01:33:56;;;;;;;34.88;16.97;;;;;;;1.05;100.00;100567.43;1787939;80;21074;-50
2022/12/16 01:36:25;;;;;;;42.13;18.87;;;;;;;1.05;100.00;100572.33;1787910;80;21098;-50
2022/12/16 01:38:55;;;;;;;39.18;18.65;;;;;;;1.05;100.00;100570.13;1758045;80;21109;-49
2022/12/16 01:41:24;;;;;;;41.02;18.87;;;;;;;1.05;100.00;100590.37;1788130;80;21180;-49
2022/12/16 01:44:19;;;;;;;39.67;19.42;;;;;;;1.06;100.00;100578.09;1787932;80;21137;-50
2022/12/16 01:46:59;;;;;;;45.08;20.90;;;;;;;1.08;100.00;100584.21;1787892;80;21154;-52
2022/12/16 01:49:56;;;;;;;39.20;19.42;;;;;;;1.08;100.00;100584.70;1788168;80;21078;-50
2022/12/16 01:52:29;;;;;;;42.67;20.30;;;;;;;1.08;100.00;100587.41;1780253;80;21123;-49
2022/12/16 01:55:08;;;;;;;45.30;20.12;;;;;;;1.09;100.00;100589.11;1788055;80;21134;-50
2022/12/16 01:57:44;;;;;;;33.48;16.32;;;;;;;1.08;100.00;100596.84;1773297;80;21130;-49
2022/12/16 02:00:15;;;;;;;43.95;20.65;;;;;;;1.08;100.00;100596.84;1788227;80;21400;-50
2022/12/16 02:02:44;;;;;;;46.13;20.40;;;;;;;1.10;100.00;100598.92;1788049;80;21123;-50
2022/12/16 02:05:21;;;;;;;42.23;19.92;;;;;;;1.10;100.00;100605.17;1787661;80;21095;-49
2022/12/16 02:08:06;;;;;;;43.35;19.70;;;;;;;1.10;100.00;100605.17;1788382;80;21162;-50
2022/12/16 02:10:48;;;;;;;43.60;20.82;;;;;;;1.10;100.00;100594.87;1788243;80;21162;-49
2022/12/16 02:14:02;;;;;;;43.20;21.00;;;;;;;1.10;100.00;100593.52;1788066;80;21142;-50
2022/12/16 02:16:58;;;;;;;43.78;20.50;;;;;;;1.10;100.00;100601.62;1788016;80;21083;-50
2022/12/16 02:20:12;;;;;;;40.28;19.77;;;;;;;1.12;100.00;100599.64;1788253;80;21110;-49
2022/12/16 02:23:01;;;;;;;40.45;19.25;;;;;;;1.12;100.00;100601.84;1788167;80;21200;-50
2022/12/16 02:25:48;;;;;;;40.15;19.35;;;;;;;1.11;100.00;100605.53;1778597;80;21157;-50
2022/12/16 02:28:38;;;;;;;44.33;20.00;;;;;;;1.09;100.00;100603.95;1787953;80;21598;-50
2022/12/16 02:31:31;;;;;;;51.55;22.93;;;;;;;1.07;100.00;100609.97;1756401;80;21145;-49
2022/12/16 02:34:14;;;;;;;49.35;22.73;;;;;;;1.08;100.00;100608.98;1788237;80;21568;-50
2022/12/16 02:37:06;;;;;;;53.98;23.47;;;;;;;1.09;100.00;100609.35;1787928;80;21213;-48
2022/12/16 02:39:59;;;;;;;52.08;23.47;;;;;;;1.11;100.00;100614.12;1788280;80;21162;-48
2022/12/16 02:42:33;;;;;;;52.67;23.45;;;;;;;1.09;100.00;100605.30;1788161;80;21158;-49
2022/12/16 02:45:16;;;;;;;58.08;22.77;;;;;;;1.10;100.00;100601.62;1788264;80;21595;-49
2022/12/16 02:47:45;;;;;;;48.50;22.58;;;;;;;1.09;100.00;100596.72;1788239;80;21137;-49
2022/12/16 02:50:35;;;;;;;50.65;23.35;;;;;;;1.05;100.00;100591.71;1788248;80;21082;-50
2022/12/16 02:53:05;;;;;;;46.25;21.77;;;;;;;1.01;100.00;100601.06;1788055;80;21087;-50
2022/12/16 02:56:02;;;;;;;45.25;20.70;;;;;;;1.03;100.00;100600.44;1788301;80;21181;-50
2022/12/16 02:58:37;;;;;;;;;;;;;;;1.03;100.00;100596.38;1790633;80;21162;-48
2022/12/16 03:01:32;;;;;;;45.28;21.50;;;;;;;0.95;100.00;100585.77;1787995;80;20222;-49
2022/12/16 03:04:12;;;;;;;48.17;22.07;;;;;;;0.92;100.00;100589.22;1788028;80;21095;-49
2022/12/16 03:06:44;;;;;;;46.60;21.50;;;;;;;0.93;100.00;100585.53;1788019;80;21150;-50
2022/12/16 03:09:13;;;;;;;46.80;21.85;;;;;;;0.94;100.00;100594.84;1788039;80;21138;-52
2022/12/16 03:11:43;;;;;;;42.95;20.82;;;;;;;0.94;100.00;100592.14;1788044;80;21146;-50
2022/12/16 03:14:14;;;;;;;48.58;21.15;;;;;;;0.95;100.00;100588.45;1787895;80;21138;-50
2022/12/16 03:16:43;;;;;;;43.35;20.23;;;;;;;0.96;100.00;100585.27;1788022;80;21395;-49
2022/12/16 03:19:13;;;;;;;42.78;20.08;;;;;;;0.97;100.00;100594.22;1788056;80;21141;-49
2022/12/16 03:22:10;;;;;;;44.95;20.88;;;;;;;0.97;100.00;100597.77;1788066;80;21091;-50
2022/12/16 03:24:40;;;;;;;43.02;21.00;;;;;;;1.00;100.00;100596.66;1788316;80;21573;-51
2022/12/16 03:27:17;;;;;;;40.15;19.87;;;;;;;0.97;100.00;100585.63;1788023;80;21171;-50
2022/12/16 03:30:10;;;;;;;44.75;20.55;;;;;;;0.98;100.00;100582.44;1788058;80;21153;-49
2022/12/16 03:32:48;;;;;;;43.00;20.95;;;;;;;0.97;100.00;100582.93;1788145;80;21119;-49
2022/12/16 03:35:37;;;;;;;47.53;23.50;;;;;;;1.00;100.00;100579.97;1788018;80;21127;-49
2022/12/16 03:38:08;;;;;;;45.23;22.95;;;;;;;1.00;100.00;100579.97;1788021;80;21154;-56
2022/12/16 03:40:38;;;;;;;43.60;21.40;;;;;;;0.98;100.00;100581.95;1787941;80;21162;-50
2022/12/16 03:43:07;;;;;;;52.58;23.87;;;;;;;0.95;100.00;100576.81;1781069;80;21396;-49
2022/12/16 03:45:38;;;;;;;53.45;23.55;;;;;;;0.95;100.00;100565.53;1788204;80;21568;-49
2022/12/16 03:48:09;;;;;;;53.10;24.15;;;;;;;0.96;100.00;100575.83;1788072;80;21130;-49
2022/12/16 03:50:39;;;;;;;54.80;25.08;;;;;;;0.95;100.00;100580.36;1788030;80;21174;-49
2022/12/16 03:53:08;;;;;;;53.83;24.30;;;;;;;0.98;100.00;100582.44;1788174;80;21201;-49
2022/12/16 03:55:38;;;;;;;55.00;24.70;;;;;;;0.97;100.00;100586.13;1788013;80;21607;-48
2022/12/16 03:58:09;;;;;;;54.08;25.02;;;;;;;0.95;100.00;100585.77;1788294;80;21138;-48
2022/12/16 04:00:39;;;;;;;54.05;25.27;;;;;;;0.95;100.00;100597.90;1788009;80;21122;-50
2022/12/16 04:03:08;;;;;;;55.23;26.02;;;;;;;0.91;100.00;100604.55;1787890;80;21173;-49
2022/12/16 04:05:38;;;;;;;55.88;24.90;;;;;;;0.90;100.00;100613.63;1788050;80;21158;-48
2022/12/16 04:08:08;;;;;;;60.78;26.42;;;;;;;0.88;100.00;100606.65;1788007;80;21554;-48
2022/12/16 04:24:40;;;;;;;60.03;27.40;;;;;;;0.85;100.00;100598.33;1788185;80;21154;-49
2022/12/16 04:27:24;;;;;;;59.42;27.70;;;;;;;0.81;100.00;100598.22;1788300;80;21193;-49
